Observations for Trim Market St
| Time | AQI | Temp °C | Hum % | Pres Pa | CO μg/m³ | H₂S μg/m³ | NO μg/m³ | NO₂ μg/m³ | O₃ μg/m³ | SO₂ μg/m³ | PM1 μg/m³ | PM2.5 μg/m³ | PM10 μg/m³ |
|---|---|---|---|---|---|---|---|---|---|---|---|---|---|
| Thursday 16 July 2026 | |||||||||||||
| 06:48 | 1 | 17.5 | 76 | 34,604 | 0.35 | 0 | 0.29 | 5.39 | 13.47 | 0 | 7.84 | 8.97 | 14.03 |
| 06:47 | 1 | 17.3 | 76 | 33,527 | 0.34 | 0 | 0.29 | 5.62 | 11.51 | 0 | 5.7 | 8.01 | 12.84 |
| 06:43 | 1 | 17.1 | 76 | 31,888 | 0.32 | 0 | 0 | 4.45 | 12.06 | 0 | 9.26 | 11.33 | 17.53 |
| 06:39 | 1 | 16.8 | 77 | 30,040 | 0.3 | 0 | 1.12 | 3.98 | 11.2 | 0 | 7.84 | 10.35 | 15.73 |
| 06:35 | 1 | 16.5 | 77 | 28,265 | 0.29 | 0 | 0.72 | 4.13 | 13.51 | 0 | 9.26 | 13.18 | 18.63 |
| 06:34 | 1 | 16.5 | 77 | 27,713 | 0.29 | 0 | 1.05 | 3.93 | 12.6 | 0 | 7.13 | 10.8 | 17.46 |
| 06:30 | 1 | 16.4 | 78 | 25,406 | 0.28 | 0 | 0 | 3.12 | 18.2 | 0 | 8.55 | 10.78 | 16.26 |
| 06:28 | 1 | 16.3 | 78 | 24,815 | 0.29 | 0 | 0 | 6.83 | 5.72 | 0 | 7.13 | 9.82 | 13.92 |
| 06:26 | 1 | 16.2 | 78 | 23,796 | 0.28 | 0 | 0.46 | 3.84 | 12.67 | 0 | 9.26 | 10.76 | 15.66 |
| 06:25 | 1 | 16.2 | 78 | 23,161 | 0.27 | 0 | 1.48 | 4.44 | 13.59 | 0 | 8.55 | 12.19 | 17.98 |
| 06:24 | 1 | 16.2 | 78 | 22,635 | 0.28 | 0 | 0.51 | 3.43 | 15.98 | 0 | 7.84 | 10.75 | 16.81 |
| 06:23 | 1 | 16.1 | 78 | 22,160 | 0.27 | 0 | 0.83 | 3.96 | 15.6 | 0 | 7.84 | 9.8 | 14.49 |
| 06:22 | 1 | 16.1 | 78 | 21,892 | 0.28 | 0 | 0 | 4.06 | 13.65 | 0 | 8.55 | 10.75 | 15.07 |
| 06:21 | 1 | 16.1 | 78 | 21,822 | 0.27 | 0 | 0 | 4.05 | 13.96 | 0 | 8.55 | 11.7 | 16.22 |
| 06:20 | 1 | 16 | 78 | 21,713 | 0.27 | 0 | 1.2 | 5.37 | 17.55 | 0 | 7.84 | 12.64 | 17.96 |
| 06:19 | 1 | 16 | 78 | 21,635 | 0.25 | 0 | 0 | 8.37 | 5.41 | 0 | 7.13 | 10.27 | 14.48 |
| 06:18 | 1 | 16 | 78 | 21,701 | 0.29 | 0 | 3.55 | 7.46 | 9.49 | 0 | 7.84 | 12.16 | 17.95 |
| 06:17 | 1 | 15.9 | 78 | 21,567 | 0.25 | 0 | 2.09 | 2.8 | 13.17 | 0 | 9.98 | 13.12 | 17.96 |
| 06:16 | 1 | 15.9 | 78 | 21,374 | 0.26 | 0 | 0 | 9.59 | 14.37 | 0 | 8.55 | 12.16 | 16.79 |
| 06:15 | 1 | 15.9 | 78 | 21,163 | 0.24 | 0 | 0 | 2.69 | 22.28 | 0 | 7.84 | 9.32 | 13.9 |